sensor_id;sensor_type;location;lat;lon;timestamp;temperature;humidity
26107;DHT22;13866;50.748;12.630;2023-04-01T00:01:57;8.00;99.90
26107;DHT22;13866;50.748;12.630;2023-04-01T00:04:22;8.10;99.90
26107;DHT22;13866;50.748;12.630;2023-04-01T00:06:48;8.10;99.90
26107;DHT22;13866;50.748;12.630;2023-04-01T00:09:13;8.10;99.90
26107;DHT22;13866;50.748;12.630;2023-04-01T00:11:39;8.10;99.90
26107;DHT22;13866;50.748;12.630;2023-04-01T00:14:06;8.10;99.90
26107;DHT22;13866;50.748;12.630;2023-04-01T00:16:32;8.10;99.90
26107;DHT22;13866;50.748;12.630;2023-04-01T00:18:57;8.10;99.90
26107;DHT22;13866;50.748;12.630;2023-04-01T00:21:23;8.10;99.90
26107;DHT22;13866;50.748;12.630;2023-04-01T00:23:51;8.10;99.90
26107;DHT22;13866;50.748;12.630;2023-04-01T00:26:17;8.10;99.90
26107;DHT22;13866;50.748;12.630;2023-04-01T00:28:45;8.10;99.90
26107;DHT22;13866;50.748;12.630;2023-04-01T00:31:11;8.10;99.90
26107;DHT22;13866;50.748;12.630;2023-04-01T00:33:37;8.10;99.90
26107;DHT22;13866;50.748;12.630;2023-04-01T00:36:14;8.10;99.90
26107;DHT22;13866;50.748;12.630;2023-04-01T00:38:40;8.10;99.90
26107;DHT22;13866;50.748;12.630;2023-04-01T00:41:07;8.10;99.90
26107;DHT22;13866;50.748;12.630;2023-04-01T00:43:33;8.00;99.90
26107;DHT22;13866;50.748;12.630;2023-04-01T00:45:59;8.10;99.90
26107;DHT22;13866;50.748;12.630;2023-04-01T00:48:34;8.00;99.90
26107;DHT22;13866;50.748;12.630;2023-04-01T00:51:14;8.00;99.90
26107;DHT22;13866;50.748;12.630;2023-04-01T00:53:49;8.10;99.90
26107;DHT22;13866;50.748;12.630;2023-04-01T00:56:19;8.10;99.90
26107;DHT22;13866;50.748;12.630;2023-04-01T00:58:51;8.00;99.90
26107;DHT22;13866;50.748;12.630;2023-04-01T01:01:21;8.00;99.90
26107;DHT22;13866;50.748;12.630;2023-04-01T01:03:47;8.00;99.90
26107;DHT22;13866;50.748;12.630;2023-04-01T01:09:10;8.00;99.90
26107;DHT22;13866;50.748;12.630;2023-04-01T01:11:50;8.00;99.90
26107;DHT22;13866;50.748;12.630;2023-04-01T01:16:58;8.10;99.90
26107;DHT22;13866;50.748;12.630;2023-04-01T01:19:48;8.10;99.90
26107;DHT22;13866;50.748;12.630;2023-04-01T01:22:39;8.10;99.90
26107;DHT22;13866;50.748;12.630;2023-04-01T01:25:34;8.10;99.90
26107;DHT22;13866;50.748;12.630;2023-04-01T01:34:01;8.10;99.90
26107;DHT22;13866;50.748;12.630;2023-04-01T01:36:53;8.10;99.90
26107;DHT22;13866;50.748;12.630;2023-04-01T01:39:21;8.10;99.90
26107;DHT22;13866;50.748;12.630;2023-04-01T01:41:52;8.10;99.90
26107;DHT22;13866;50.748;12.630;2023-04-01T01:44:18;8.10;99.90
26107;DHT22;13866;50.748;12.630;2023-04-01T01:46:45;8.10;99.90
26107;DHT22;13866;50.748;12.630;2023-04-01T01:49:12;8.10;99.90
26107;DHT22;13866;50.748;12.630;2023-04-01T01:51:39;8.10;99.90
26107;DHT22;13866;50.748;12.630;2023-04-01T01:54:05;8.10;99.90
26107;DHT22;13866;50.748;12.630;2023-04-01T01:56:30;8.10;99.90
26107;DHT22;13866;50.748;12.630;2023-04-01T01:59:02;8.00;99.90
26107;DHT22;13866;50.748;12.630;2023-04-01T02:01:30;8.00;99.90
26107;DHT22;13866;50.748;12.630;2023-04-01T02:03:58;8.10;99.90
26107;DHT22;13866;50.748;12.630;2023-04-01T02:06:26;8.10;99.90
26107;DHT22;13866;50.748;12.630;2023-04-01T02:09:05;8.10;99.90
26107;DHT22;13866;50.748;12.630;2023-04-01T02:11:39;8.10;99.90
26107;DHT22;13866;50.748;12.630;2023-04-01T02:14:18;8.10;99.90
26107;DHT22;13866;50.748;12.630;2023-04-01T02:19:17;8.10;99.90
26107;DHT22;13866;50.748;12.630;2023-04-01T02:21:55;8.10;99.90
26107;DHT22;13866;50.748;12.630;2023-04-01T02:24:24;8.10;99.90
26107;DHT22;13866;50.748;12.630;2023-04-01T02:26:51;8.10;99.90
26107;DHT22;13866;50.748;12.630;2023-04-01T02:29:20;8.10;99.90
26107;DHT22;13866;50.748;12.630;2023-04-01T02:31:46;8.10;99.90
26107;DHT22;13866;50.748;12.630;2023-04-01T02:34:13;8.10;99.90
26107;DHT22;13866;50.748;12.630;2023-04-01T02:36:39;8.10;99.90
26107;DHT22;13866;50.748;12.630;2023-04-01T02:39:05;8.10;99.90
26107;DHT22;13866;50.748;12.630;2023-04-01T02:41:31;8.10;99.90
26107;DHT22;13866;50.748;12.630;2023-04-01T02:43:57;8.10;99.90
26107;DHT22;13866;50.748;12.630;2023-04-01T02:46:24;8.10;99.90
26107;DHT22;13866;50.748;12.630;2023-04-01T02:48:49;8.10;99.90
26107;DHT22;13866;50.748;12.630;2023-04-01T02:51:15;8.10;99.90
26107;DHT22;13866;50.748;12.630;2023-04-01T02:53:41;8.10;99.90
26107;DHT22;13866;50.748;12.630;2023-04-01T02:56:06;8.10;99.90
26107;DHT22;13866;50.748;12.630;2023-04-01T02:58:32;8.10;99.90
26107;DHT22;13866;50.748;12.630;2023-04-01T03:00:57;8.10;99.90
26107;DHT22;13866;50.748;12.630;2023-04-01T03:03:23;8.20;99.90
26107;DHT22;13866;50.748;12.630;2023-04-01T03:05:48;8.10;99.90
26107;DHT22;13866;50.748;12.630;2023-04-01T03:08:14;8.10;99.90
26107;DHT22;13866;50.748;12.630;2023-04-01T03:10:39;8.10;99.90
26107;DHT22;13866;50.748;12.630;2023-04-01T03:13:05;8.10;99.90
26107;DHT22;13866;50.748;12.630;2023-04-01T03:15:31;8.10;99.90
26107;DHT22;13866;50.748;12.630;2023-04-01T03:17:57;8.10;99.90
26107;DHT22;13866;50.748;12.630;2023-04-01T03:20:22;8.00;99.90
26107;DHT22;13866;50.748;12.630;2023-04-01T03:22:47;8.00;99.90
26107;DHT22;13866;50.748;12.630;2023-04-01T03:25:13;8.00;99.90
26107;DHT22;13866;50.748;12.630;2023-04-01T03:27:39;8.00;99.90
26107;DHT22;13866;50.748;12.630;2023-04-01T03:30:05;8.00;99.90
26107;DHT22;13866;50.748;12.630;2023-04-01T03:32:31;8.00;99.90
26107;DHT22;13866;50.748;12.630;2023-04-01T03:34:57;7.90;99.90
26107;DHT22;13866;50.748;12.630;2023-04-01T03:37:23;7.90;99.90
26107;DHT22;13866;50.748;12.630;2023-04-01T03:39:49;7.90;99.90
26107;DHT22;13866;50.748;12.630;2023-04-01T03:42:14;7.90;99.90
26107;DHT22;13866;50.748;12.630;2023-04-01T03:44:40;7.90;99.90
26107;DHT22;13866;50.748;12.630;2023-04-01T03:47:06;7.80;99.90
26107;DHT22;13866;50.748;12.630;2023-04-01T03:49:31;7.80;99.90
26107;DHT22;13866;50.748;12.630;2023-04-01T03:51:58;7.80;99.90
26107;DHT22;13866;50.748;12.630;2023-04-01T03:54:24;7.80;99.90
26107;DHT22;13866;50.748;12.630;2023-04-01T03:56:49;7.70;99.90
26107;DHT22;13866;50.748;12.630;2023-04-01T03:59:15;7.70;99.90
26107;DHT22;13866;50.748;12.630;2023-04-01T04:01:40;7.70;99.90
26107;DHT22;13866;50.748;12.630;2023-04-01T04:04:06;7.70;99.90
26107;DHT22;13866;50.748;12.630;2023-04-01T04:06:32;7.70;99.90
26107;DHT22;13866;50.748;12.630;2023-04-01T04:08:58;7.70;99.90
26107;DHT22;13866;50.748;12.630;2023-04-01T04:11:23;7.70;99.90
26107;DHT22;13866;50.748;12.630;2023-04-01T04:13:49;7.70;99.90
26107;DHT22;13866;50.748;12.630;2023-04-01T04:16:16;7.70;99.90
26107;DHT22;13866;50.748;12.630;2023-04-01T04:18:41;7.70;99.90
26107;DHT22;13866;50.748;12.630;2023-04-01T04:21:10;7.70;99.90
26107;DHT22;13866;50.748;12.630;2023-04-01T04:23:36;7.70;99.90
26107;DHT22;13866;50.748;12.630;2023-04-01T04:26:07;7.70;99.90
26107;DHT22;13866;50.748;12.630;2023-04-01T04:28:33;7.70;99.90
26107;DHT22;13866;50.748;12.630;2023-04-01T04:30:59;7.60;99.90
26107;DHT22;13866;50.748;12.630;2023-04-01T04:33:25;7.70;99.90
26107;DHT22;13866;50.748;12.630;2023-04-01T04:35:51;7.70;99.90
26107;DHT22;13866;50.748;12.630;2023-04-01T04:38:17;7.70;99.90
26107;DHT22;13866;50.748;12.630;2023-04-01T04:40:43;7.70;99.90
26107;DHT22;13866;50.748;12.630;2023-04-01T04:43:13;7.70;99.90
26107;DHT22;13866;50.748;12.630;2023-04-01T04:45:38;7.70;99.90
26107;DHT22;13866;50.748;12.630;2023-04-01T04:48:05;7.60;99.90
26107;DHT22;13866;50.748;12.630;2023-04-01T04:50:30;7.70;99.90
26107;DHT22;13866;50.748;12.630;2023-04-01T04:52:56;7.60;99.90
26107;DHT22;13866;50.748;12.630;2023-04-01T04:55:22;7.60;99.90
26107;DHT22;13866;50.748;12.630;2023-04-01T04:57:47;7.70;99.90
26107;DHT22;13866;50.748;12.630;2023-04-01T05:00:13;7.70;99.90
26107;DHT22;13866;50.748;12.630;2023-04-01T05:02:38;7.70;99.90
26107;DHT22;13866;50.748;12.630;2023-04-01T05:05:04;7.70;99.90
26107;DHT22;13866;50.748;12.630;2023-04-01T05:07:30;7.60;99.90
26107;DHT22;13866;50.748;12.630;2023-04-01T05:09:55;7.70;99.90
26107;DHT22;13866;50.748;12.630;2023-04-01T05:12:21;7.70;99.90
26107;DHT22;13866;50.748;12.630;2023-04-01T05:14:46;7.70;99.90
26107;DHT22;13866;50.748;12.630;2023-04-01T05:17:12;7.70;99.90
26107;DHT22;13866;50.748;12.630;2023-04-01T05:19:38;7.70;99.90
26107;DHT22;13866;50.748;12.630;2023-04-01T05:22:05;7.70;99.90
26107;DHT22;13866;50.748;12.630;2023-04-01T05:24:31;7.70;99.90
26107;DHT22;13866;50.748;12.630;2023-04-01T05:26:56;7.80;99.90
26107;DHT22;13866;50.748;12.630;2023-04-01T05:29:23;7.70;99.90
26107;DHT22;13866;50.748;12.630;2023-04-01T05:31:49;7.80;99.90
26107;DHT22;13866;50.748;12.630;2023-04-01T05:34:14;7.80;99.90
26107;DHT22;13866;50.748;12.630;2023-04-01T05:36:40;7.80;99.90
26107;DHT22;13866;50.748;12.630;2023-04-01T05:39:07;7.80;99.90
26107;DHT22;13866;50.748;12.630;2023-04-01T05:41:35;7.90;99.90
26107;DHT22;13866;50.748;12.630;2023-04-01T05:44:01;7.90;99.90
26107;DHT22;13866;50.748;12.630;2023-04-01T05:46:27;7.90;99.90
26107;DHT22;13866;50.748;12.630;2023-04-01T05:48:53;7.90;99.90
26107;DHT22;13866;50.748;12.630;2023-04-01T05:51:18;7.90;99.90
26107;DHT22;13866;50.748;12.630;2023-04-01T05:53:44;7.90;99.90
26107;DHT22;13866;50.748;12.630;2023-04-01T05:56:09;8.00;99.90
26107;DHT22;13866;50.748;12.630;2023-04-01T05:58:36;8.00;99.90
26107;DHT22;13866;50.748;12.630;2023-04-01T06:01:07;8.00;99.90
26107;DHT22;13866;50.748;12.630;2023-04-01T06:03:33;8.00;99.90
26107;DHT22;13866;50.748;12.630;2023-04-01T06:05:59;8.10;99.90
26107;DHT22;13866;50.748;12.630;2023-04-01T06:08:26;8.10;99.90
26107;DHT22;13866;50.748;12.630;2023-04-01T06:11:03;8.10;99.90
26107;DHT22;13866;50.748;12.630;2023-04-01T06:13:47;8.20;99.90
26107;DHT22;13866;50.748;12.630;2023-04-01T06:25:00;8.30;99.90
26107;DHT22;13866;50.748;12.630;2023-04-01T06:38:42;8.40;99.90
26107;DHT22;13866;50.748;12.630;2023-04-01T06:41:22;8.40;99.90
26107;DHT22;13866;50.748;12.630;2023-04-01T06:54:43;8.50;99.90
26107;DHT22;13866;50.748;12.630;2023-04-01T06:57:36;8.40;99.90
26107;DHT22;13866;50.748;12.630;2023-04-01T07:00:35;8.40;99.90
26107;DHT22;13866;50.748;12.630;2023-04-01T07:05:35;8.40;99.90
26107;DHT22;13866;50.748;12.630;2023-04-01T07:08:04;8.50;99.90
26107;DHT22;13866;50.748;12.630;2023-04-01T07:13:24;8.50;99.90
26107;DHT22;13866;50.748;12.630;2023-04-01T07:18:48;8.60;99.90
26107;DHT22;13866;50.748;12.630;2023-04-01T07:21:32;8.70;99.90
26107;DHT22;13866;50.748;12.630;2023-04-01T07:24:05;8.80;99.90
26107;DHT22;13866;50.748;12.630;2023-04-01T07:26:32;8.80;99.90
26107;DHT22;13866;50.748;12.630;2023-04-01T07:28:57;8.90;99.90
26107;DHT22;13866;50.748;12.630;2023-04-01T07:34:34;9.10;99.90
26107;DHT22;13866;50.748;12.630;2023-04-01T07:37:22;9.10;99.90
26107;DHT22;13866;50.748;12.630;2023-04-01T07:40:19;9.20;99.90
26107;DHT22;13866;50.748;12.630;2023-04-01T07:43:14;9.20;99.90
26107;DHT22;13866;50.748;12.630;2023-04-01T07:51:31;9.30;99.90
26107;DHT22;13866;50.748;12.630;2023-04-01T07:54:15;9.30;99.90
26107;DHT22;13866;50.748;12.630;2023-04-01T07:56:55;9.30;99.90
26107;DHT22;13866;50.748;12.630;2023-04-01T08:02:25;9.40;99.90
26107;DHT22;13866;50.748;12.630;2023-04-01T08:07:51;9.60;99.90
26107;DHT22;13866;50.748;12.630;2023-04-01T08:19:15;10.30;99.90
26107;DHT22;13866;50.748;12.630;2023-04-01T08:21:51;10.40;99.90
26107;DHT22;13866;50.748;12.630;2023-04-01T08:24:38;10.40;99.90
26107;DHT22;13866;50.748;12.630;2023-04-01T08:27:18;10.60;99.90
26107;DHT22;13866;50.748;12.630;2023-04-01T08:29:58;10.80;99.90
26107;DHT22;13866;50.748;12.630;2023-04-01T08:32:29;11.00;99.90
26107;DHT22;13866;50.748;12.630;2023-04-01T08:37:39;11.00;99.90
26107;DHT22;13866;50.748;12.630;2023-04-01T08:43:16;11.10;99.90
26107;DHT22;13866;50.748;12.630;2023-04-01T08:46:02;11.40;99.90
26107;DHT22;13866;50.748;12.630;2023-04-01T08:48:48;11.50;99.90
26107;DHT22;13866;50.748;12.630;2023-04-01T08:54:20;11.60;99.90
26107;DHT22;13866;50.748;12.630;2023-04-01T09:05:36;11.40;99.90
26107;DHT22;13866;50.748;12.630;2023-04-01T09:08:29;11.40;99.90
26107;DHT22;13866;50.748;12.630;2023-04-01T09:11:04;11.30;99.90
26107;DHT22;13866;50.748;12.630;2023-04-01T09:13:43;11.10;99.90
26107;DHT22;13866;50.748;12.630;2023-04-01T09:16:41;11.20;99.90
26107;DHT22;13866;50.748;12.630;2023-04-01T09:19:41;11.00;99.90
26107;DHT22;13866;50.748;12.630;2023-04-01T09:22:20;10.90;99.90
26107;DHT22;13866;50.748;12.630;2023-04-01T09:33:47;10.90;99.90
26107;DHT22;13866;50.748;12.630;2023-04-01T09:39:04;10.80;99.90
26107;DHT22;13866;50.748;12.630;2023-04-01T09:44:33;11.00;99.90
26107;DHT22;13866;50.748;12.630;2023-04-01T09:50:30;11.30;99.90
26107;DHT22;13866;50.748;12.630;2023-04-01T09:53:28;11.20;99.90
26107;DHT22;13866;50.748;12.630;2023-04-01T09:56:05;11.30;99.90
26107;DHT22;13866;50.748;12.630;2023-04-01T10:01:09;11.20;99.90
26107;DHT22;13866;50.748;12.630;2023-04-01T10:07:01;11.50;99.90
26107;DHT22;13866;50.748;12.630;2023-04-01T10:23:27;12.00;99.90
26107;DHT22;13866;50.748;12.630;2023-04-01T10:49:41;11.50;99.90
26107;DHT22;13866;50.748;12.630;2023-04-01T10:52:40;11.60;99.90
26107;DHT22;13866;50.748;12.630;2023-04-01T10:55:25;11.50;99.90
26107;DHT22;13866;50.748;12.630;2023-04-01T10:58:27;11.50;99.90
26107;DHT22;13866;50.748;12.630;2023-04-01T11:01:39;11.50;99.90
26107;DHT22;13866;50.748;12.630;2023-04-01T11:07:04;11.10;99.90
26107;DHT22;13866;50.748;12.630;2023-04-01T11:12:47;11.10;99.90
26107;DHT22;13866;50.748;12.630;2023-04-01T11:24:49;11.50;99.90
26107;DHT22;13866;50.748;12.630;2023-04-01T11:27:33;11.60;99.90
26107;DHT22;13866;50.748;12.630;2023-04-01T11:33:03;11.70;99.90
26107;DHT22;13866;50.748;12.630;2023-04-01T11:35:55;11.50;99.90
26107;DHT22;13866;50.748;12.630;2023-04-01T11:44:24;11.40;99.90
26107;DHT22;13866;50.748;12.630;2023-04-01T11:50:11;11.30;99.90
26107;DHT22;13866;50.748;12.630;2023-04-01T11:58:26;11.20;99.90
26107;DHT22;13866;50.748;12.630;2023-04-01T12:01:07;11.20;99.90
26107;DHT22;13866;50.748;12.630;2023-04-01T12:04:14;11.20;99.90
26107;DHT22;13866;50.748;12.630;2023-04-01T12:06:53;11.10;99.90
26107;DHT22;13866;50.748;12.630;2023-04-01T12:09:40;11.00;99.90
26107;DHT22;13866;50.748;12.630;2023-04-01T12:12:32;11.00;99.90
26107;DHT22;13866;50.748;12.630;2023-04-01T12:28:59;10.60;99.90
26107;DHT22;13866;50.748;12.630;2023-04-01T12:31:51;10.70;99.90
26107;DHT22;13866;50.748;12.630;2023-04-01T12:45:07;11.30;99.90
26107;DHT22;13866;50.748;12.630;2023-04-01T12:48:14;11.50;99.90
26107;DHT22;13866;50.748;12.630;2023-04-01T13:01:59;10.70;99.90
26107;DHT22;13866;50.748;12.630;2023-04-01T13:13:03;10.50;99.90
26107;DHT22;13866;50.748;12.630;2023-04-01T13:15:40;10.70;99.90
26107;DHT22;13866;50.748;12.630;2023-04-01T13:21:04;11.10;99.90
26107;DHT22;13866;50.748;12.630;2023-04-01T13:23:56;11.00;99.90
26107;DHT22;13866;50.748;12.630;2023-04-01T13:26:57;10.90;99.90
26107;DHT22;13866;50.748;12.630;2023-04-01T13:29:32;10.80;99.90
26107;DHT22;13866;50.748;12.630;2023-04-01T13:37:32;10.90;99.90
26107;DHT22;13866;50.748;12.630;2023-04-01T13:40:33;11.10;99.90
26107;DHT22;13866;50.748;12.630;2023-04-01T13:43:16;11.00;99.90
26107;DHT22;13866;50.748;12.630;2023-04-01T13:59:59;11.20;99.90
26107;DHT22;13866;50.748;12.630;2023-04-01T14:02:41;10.90;99.90
26107;DHT22;13866;50.748;12.630;2023-04-01T14:08:20;10.70;99.90
26107;DHT22;13866;50.748;12.630;2023-04-01T14:11:26;10.50;99.90
26107;DHT22;13866;50.748;12.630;2023-04-01T14:17:46;10.70;99.90
26107;DHT22;13866;50.748;12.630;2023-04-01T14:20:20;11.00;99.90
26107;DHT22;13866;50.748;12.630;2023-04-01T14:26:10;11.40;99.90
26107;DHT22;13866;50.748;12.630;2023-04-01T14:28:49;11.40;99.90
26107;DHT22;13866;50.748;12.630;2023-04-01T14:34:23;11.20;99.90
26107;DHT22;13866;50.748;12.630;2023-04-01T14:40:00;11.10;99.90
26107;DHT22;13866;50.748;12.630;2023-04-01T14:43:01;11.00;99.90
26107;DHT22;13866;50.748;12.630;2023-04-01T14:45:44;10.90;99.90
26107;DHT22;13866;50.748;12.630;2023-04-01T14:48:39;10.80;99.90
26107;DHT22;13866;50.748;12.630;2023-04-01T14:51:18;10.80;99.90
26107;DHT22;13866;50.748;12.630;2023-04-01T14:54:00;10.80;99.90
26107;DHT22;13866;50.748;12.630;2023-04-01T14:56:44;10.90;99.90
26107;DHT22;13866;50.748;12.630;2023-04-01T14:59:27;10.90;99.90
26107;DHT22;13866;50.748;12.630;2023-04-01T15:07:35;11.00;99.90
26107;DHT22;13866;50.748;12.630;2023-04-01T15:10:53;11.10;99.90
26107;DHT22;13866;50.748;12.630;2023-04-01T15:21:50;11.20;99.90
26107;DHT22;13866;50.748;12.630;2023-04-01T15:27:14;11.10;99.90
26107;DHT22;13866;50.748;12.630;2023-04-01T15:29:52;11.00;99.90
26107;DHT22;13866;50.748;12.630;2023-04-01T15:32:46;11.00;99.90
26107;DHT22;13866;50.748;12.630;2023-04-01T15:35:26;11.00;99.90
26107;DHT22;13866;50.748;12.630;2023-04-01T15:38:05;10.90;99.90
26107;DHT22;13866;50.748;12.630;2023-04-01T15:40:46;10.90;99.90
26107;DHT22;13866;50.748;12.630;2023-04-01T15:45:58;10.90;99.90
26107;DHT22;13866;50.748;12.630;2023-04-01T15:51:47;10.90;99.90
26107;DHT22;13866;50.748;12.630;2023-04-01T15:54:47;10.80;99.90
26107;DHT22;13866;50.748;12.630;2023-04-01T15:57:46;10.70;99.90
26107;DHT22;13866;50.748;12.630;2023-04-01T16:02:56;10.50;99.90
26107;DHT22;13866;50.748;12.630;2023-04-01T16:05:52;10.40;99.90
26107;DHT22;13866;50.748;12.630;2023-04-01T16:08:40;10.30;99.90
26107;DHT22;13866;50.748;12.630;2023-04-01T16:11:32;10.20;99.90
26107;DHT22;13866;50.748;12.630;2023-04-01T16:14:28;10.20;99.90
26107;DHT22;13866;50.748;12.630;2023-04-01T16:23:00;10.20;99.90
26107;DHT22;13866;50.748;12.630;2023-04-01T16:25:33;10.10;99.90
26107;DHT22;13866;50.748;12.630;2023-04-01T16:28:29;10.10;99.90
26107;DHT22;13866;50.748;12.630;2023-04-01T16:31:15;10.10;99.90
26107;DHT22;13866;50.748;12.630;2023-04-01T16:33:55;10.00;99.90
26107;DHT22;13866;50.748;12.630;2023-04-01T16:40:11;10.00;99.90
26107;DHT22;13866;50.748;12.630;2023-04-01T16:42:56;10.00;99.90
26107;DHT22;13866;50.748;12.630;2023-04-01T16:46:12;10.00;99.90
26107;DHT22;13866;50.748;12.630;2023-04-01T16:54:43;9.80;99.90
26107;DHT22;13866;50.748;12.630;2023-04-01T16:59:47;9.80;99.90
26107;DHT22;13866;50.748;12.630;2023-04-01T17:02:18;9.70;99.90
26107;DHT22;13866;50.748;12.630;2023-04-01T17:07:36;9.70;99.90
26107;DHT22;13866;50.748;12.630;2023-04-01T17:10:31;9.60;99.90
26107;DHT22;13866;50.748;12.630;2023-04-01T17:21:11;9.40;99.90
26107;DHT22;13866;50.748;12.630;2023-04-01T17:23:49;9.40;99.90
26107;DHT22;13866;50.748;12.630;2023-04-01T17:29:24;9.30;99.90
26107;DHT22;13866;50.748;12.630;2023-04-01T17:32:15;9.30;99.90
26107;DHT22;13866;50.748;12.630;2023-04-01T17:35:05;9.30;99.90
26107;DHT22;13866;50.748;12.630;2023-04-01T17:37:54;9.30;99.90
26107;DHT22;13866;50.748;12.630;2023-04-01T17:40:34;9.20;99.90
26107;DHT22;13866;50.748;12.630;2023-04-01T17:45:54;9.20;99.90
26107;DHT22;13866;50.748;12.630;2023-04-01T17:48:45;9.20;99.90
26107;DHT22;13866;50.748;12.630;2023-04-01T17:51:33;9.10;99.90
26107;DHT22;13866;50.748;12.630;2023-04-01T17:54:12;9.10;99.90
26107;DHT22;13866;50.748;12.630;2023-04-01T17:57:14;9.10;99.90
26107;DHT22;13866;50.748;12.630;2023-04-01T18:00:03;9.10;99.90
26107;DHT22;13866;50.748;12.630;2023-04-01T18:05:30;9.00;99.90
26107;DHT22;13866;50.748;12.630;2023-04-01T18:14:00;9.00;99.90
26107;DHT22;13866;50.748;12.630;2023-04-01T18:17:03;9.00;99.90
26107;DHT22;13866;50.748;12.630;2023-04-01T18:22:47;8.90;99.90
26107;DHT22;13866;50.748;12.630;2023-04-01T18:25:22;8.90;99.90
26107;DHT22;13866;50.748;12.630;2023-04-01T18:33:56;8.80;99.90
26107;DHT22;13866;50.748;12.630;2023-04-01T18:36:44;8.80;99.90
26107;DHT22;13866;50.748;12.630;2023-04-01T18:47:58;8.70;99.90
26107;DHT22;13866;50.748;12.630;2023-04-01T18:50:53;8.70;99.90
26107;DHT22;13866;50.748;12.630;2023-04-01T18:53:46;8.70;99.90
26107;DHT22;13866;50.748;12.630;2023-04-01T18:56:35;8.60;99.90
26107;DHT22;13866;50.748;12.630;2023-04-01T18:59:06;8.60;99.90
26107;DHT22;13866;50.748;12.630;2023-04-01T19:04:38;8.60;99.90
26107;DHT22;13866;50.748;12.630;2023-04-01T19:10:00;8.60;99.90
26107;DHT22;13866;50.748;12.630;2023-04-01T19:12:38;8.60;99.90
26107;DHT22;13866;50.748;12.630;2023-04-01T19:18:31;8.50;99.90
26107;DHT22;13866;50.748;12.630;2023-04-01T19:21:07;8.50;99.90
26107;DHT22;13866;50.748;12.630;2023-04-01T19:26:53;8.50;99.90
26107;DHT22;13866;50.748;12.630;2023-04-01T19:35:03;8.40;99.90
26107;DHT22;13866;50.748;12.630;2023-04-01T19:38:09;8.50;99.90
26107;DHT22;13866;50.748;12.630;2023-04-01T19:40:57;8.50;99.90
26107;DHT22;13866;50.748;12.630;2023-04-01T19:43:39;8.50;99.90
26107;DHT22;13866;50.748;12.630;2023-04-01T19:46:16;8.40;99.90
26107;DHT22;13866;50.748;12.630;2023-04-01T19:49:06;8.40;99.90
26107;DHT22;13866;50.748;12.630;2023-04-01T19:52:41;8.40;99.90
26107;DHT22;13866;50.748;12.630;2023-04-01T20:00:31;8.40;99.90
26107;DHT22;13866;50.748;12.630;2023-04-01T20:03:05;8.40;99.90
26107;DHT22;13866;50.748;12.630;2023-04-01T20:14:19;8.40;99.90
26107;DHT22;13866;50.748;12.630;2023-04-01T20:19:45;8.30;99.90
26107;DHT22;13866;50.748;12.630;2023-04-01T20:22:23;8.30;99.90
26107;DHT22;13866;50.748;12.630;2023-04-01T20:24:51;8.30;99.90
26107;DHT22;13866;50.748;12.630;2023-04-01T20:27:24;8.30;99.90
26107;DHT22;13866;50.748;12.630;2023-04-01T20:30:13;8.30;99.90
26107;DHT22;13866;50.748;12.630;2023-04-01T20:36:04;8.30;99.90
26107;DHT22;13866;50.748;12.630;2023-04-01T20:41:53;8.30;99.90
26107;DHT22;13866;50.748;12.630;2023-04-01T20:45:01;8.30;99.90
26107;DHT22;13866;50.748;12.630;2023-04-01T20:47:54;8.20;99.90
26107;DHT22;13866;50.748;12.630;2023-04-01T20:50:59;8.30;99.90
26107;DHT22;13866;50.748;12.630;2023-04-01T20:56:32;8.20;99.90
26107;DHT22;13866;50.748;12.630;2023-04-01T20:59:15;8.20;99.90
26107;DHT22;13866;50.748;12.630;2023-04-01T21:01:51;8.30;99.90
26107;DHT22;13866;50.748;12.630;2023-04-01T21:07:37;8.20;99.90
26107;DHT22;13866;50.748;12.630;2023-04-01T21:10:26;8.30;99.90
26107;DHT22;13866;50.748;12.630;2023-04-01T21:21:30;8.20;99.90
26107;DHT22;13866;50.748;12.630;2023-04-01T21:24:28;8.20;99.90
26107;DHT22;13866;50.748;12.630;2023-04-01T21:33:07;8.20;99.90
26107;DHT22;13866;50.748;12.630;2023-04-01T21:35:59;8.10;99.90
26107;DHT22;13866;50.748;12.630;2023-04-01T21:41:31;8.10;99.90
26107;DHT22;13866;50.748;12.630;2023-04-01T21:49:44;8.10;99.90
26107;DHT22;13866;50.748;12.630;2023-04-01T21:52:37;8.10;99.90
26107;DHT22;13866;50.748;12.630;2023-04-01T21:55:45;8.10;99.90
26107;DHT22;13866;50.748;12.630;2023-04-01T22:00:52;8.10;99.90
26107;DHT22;13866;50.748;12.630;2023-04-01T22:06:43;8.10;99.90
26107;DHT22;13866;50.748;12.630;2023-04-01T22:09:23;8.10;99.90
26107;DHT22;13866;50.748;12.630;2023-04-01T22:14:47;8.10;99.90
26107;DHT22;13866;50.748;12.630;2023-04-01T22:20:27;8.00;99.90
26107;DHT22;13866;50.748;12.630;2023-04-01T22:23:14;8.00;99.90
26107;DHT22;13866;50.748;12.630;2023-04-01T22:25:51;8.00;99.90
26107;DHT22;13866;50.748;12.630;2023-04-01T22:28:24;8.00;99.90
26107;DHT22;13866;50.748;12.630;2023-04-01T22:30:58;8.00;99.90
26107;DHT22;13866;50.748;12.630;2023-04-01T22:42:24;8.00;99.90
26107;DHT22;13866;50.748;12.630;2023-04-01T22:47:50;8.00;99.90
26107;DHT22;13866;50.748;12.630;2023-04-01T22:50:21;8.00;99.90
26107;DHT22;13866;50.748;12.630;2023-04-01T22:52:56;8.00;99.90
26107;DHT22;13866;50.748;12.630;2023-04-01T22:55:28;8.00;99.90
26107;DHT22;13866;50.748;12.630;2023-04-01T22:58:05;8.00;99.90
26107;DHT22;13866;50.748;12.630;2023-04-01T23:00:39;8.00;99.90
26107;DHT22;13866;50.748;12.630;2023-04-01T23:05:38;8.00;99.90
26107;DHT22;13866;50.748;12.630;2023-04-01T23:10:55;7.90;99.90
26107;DHT22;13866;50.748;12.630;2023-04-01T23:14:14;7.90;99.90
26107;DHT22;13866;50.748;12.630;2023-04-01T23:16:14;7.90;99.90
26107;DHT22;13866;50.748;12.630;2023-04-01T23:18:57;7.90;99.90
26107;DHT22;13866;50.748;12.630;2023-04-01T23:21:41;8.00;99.90
26107;DHT22;13866;50.748;12.630;2023-04-01T23:24:25;7.90;99.90
26107;DHT22;13866;50.748;12.630;2023-04-01T23:27:01;7.90;99.90
26107;DHT22;13866;50.748;12.630;2023-04-01T23:29:28;7.90;99.90
26107;DHT22;13866;50.748;12.630;2023-04-01T23:31:59;7.90;99.90
26107;DHT22;13866;50.748;12.630;2023-04-01T23:36:56;7.80;99.90
26107;DHT22;13866;50.748;12.630;2023-04-01T23:39:37;7.80;99.90
26107;DHT22;13866;50.748;12.630;2023-04-01T23:42:24;7.70;99.90
26107;DHT22;13866;50.748;12.630;2023-04-01T23:45:00;7.70;99.90
26107;DHT22;13866;50.748;12.630;2023-04-01T23:50:06;7.50;99.90
26107;DHT22;13866;50.748;12.630;2023-04-01T23:52:58;7.60;99.90
26107;DHT22;13866;50.748;12.630;2023-04-01T23:55:26;7.50;99.90
